Traveller — PHAM — position and weather

sailwx.info

Track history (hours):
 
Tides and Currents Weather Stations Pressure Air Temp Water Temp Dewpoint Dewpoint Depression Visibility Wind Speed Wind Dir Waves Ship Positions

Traveller

Last reported at 2017-May-22 14:58 UTC. Time now 2017-May-29 03:55 UTC.
Position N 27°37' W 015°13'.

Length 101 m; beam 20 m.

Type: Ship. MMSI: 246111000.

Date/timePositionNaut miles runAvg speedWind from/ knotsBaromVisibWave heightAir tempDewpointWater temp
2017-May-22 14:58N 27°37' W 015°13'1515.9
2017-May-22 14:01N 27°51' W 015°07'815.6
2017-May-22 13:30N 27°59' W 015°04'815.2
2017-May-22 13:00N 28°06' W 015°01'715.0
2017-May-22 12:31N 28°13' W 014°58'815.1
2017-May-22 12:00N 28°20' W 014°55'815.0
2017-May-22 11:30N 28°27' W 014°53'815.0
2017-May-22 11:00N 28°35' W 014°51'815.2
2017-May-22 10:30N 28°42' W 014°49'47515.0
2017-May-21 02:53N 36°24' W 012°41'615.3
2017-May-21 02:30N 36°30' W 012°39'815.3
2017-May-21 02:00N 36°37' W 012°37'815.1
2017-May-21 01:30N 36°45' W 012°35'2315.1
2017-May-20 23:58N 37°08' W 012°29'715.0
2017-May-20 23:31N 37°14' W 012°28'814.9
2017-May-20 23:00N 37°22' W 012°25'715.1
2017-May-20 22:30N 37°29' W 012°23'714.8
2017-May-20 22:00N 37°36' W 012°21'714.6
2017-May-20 21:30N 37°43' W 012°19'714.3
2017-May-20 21:00N 37°50' W 012°17'1714.3
2017-May-20 19:48N 38°07' W 012°12'414.5
2017-May-20 19:31N 38°11' W 012°10'2414.6
2017-May-20 17:53N 38°34' W 012°03'614.9
2017-May-20 17:30N 38°39' W 012°01'715.0
2017-May-20 17:00N 38°47' W 011°59'714.8
2017-May-20 16:30N 38°54' W 011°57'815.0
2017-May-20 16:00N 39°01' W 011°54'715.0
2017-May-20 15:31N 39°08' W 011°52'815.0
2017-May-20 15:00N 39°16' W 011°50'815.0
2017-May-20 14:30N 39°23' W 011°47'71613.9
2017-May-18 10:59N 49°46' W 003°31'613.3
2017-May-18 10:30N 49°49' W 003°22'713.5
2017-May-18 10:00N 49°52' W 003°13'913.7
2017-May-18 09:23N 49°57' W 003°02'514.0
2017-May-18 09:00N 49°59' W 002°55'814.3
2017-May-18 08:26N 50°02' W 002°42'9815.2
2017-May-18 02:00N 50°27' W 000°15'612.9
2017-May-18 01:30N 50°29' W 000°05'612.8
2017-May-18 01:00N 50°31' E 000°04'612.9
2017-May-18 00:30N 50°32' E 000°14'713.0
2017-May-17 23:59N 50°34' E 000°24'713.7
2017-May-17 23:30N 50°36' E 000°34'714.2
2017-May-17 23:00N 50°40' E 000°43'1115.1
2017-May-17 22:15N 50°48' E 000°57'1215.6
2017-May-17 21:27N 50°56' E 001°12'715.6
2017-May-17 20:59N 51°01' E 001°20'715.4
2017-May-17 20:31N 51°05' E 001°30'714.8
2017-May-17 20:00N 51°10' E 001°39'714.2
2017-May-17 19:30N 51°15' E 001°47'713.8
2017-May-17 19:00N 51°21' E 001°52'713.5
2017-May-17 18:30N 51°27' E 001°58'713.6
2017-May-17 18:00N 51°32' E 002°05'713.4
2017-May-17 17:30N 51°37' E 002°12'12115.0
2017-May-17 09:27N 53°09' E 004°21'613.2
2017-May-17 08:59N 53°14' E 004°27'613.4
2017-May-17 08:30N 53°20' E 004°31'713.7
2017-May-17 08:00N 53°27' E 004°35'7414.7
2017-May-17 02:59N 54°35' E 005°22'714.7
2017-May-17 02:29N 54°42' E 005°27'714.6
2017-May-17 02:00N 54°48' E 005°32'21914.0
2017-May-16 10:20N 58°00' E 008°42'615.1
2017-May-16 09:55N 58°05' E 008°51'615.3
2017-May-16 09:30N 58°11' E 008°51'715.3
2017-May-16 09:00N 58°19' E 008°53'816.1
2017-May-16 08:30N 58°27' E 008°55'611.9
2017-May-16 08:00N 58°32' E 009°01'5 9.1
2017-May-16 07:30N 58°30' E 008°53'0 0.2
2017-May-16 06:59N 58°30' E 008°53'0 0.0
2017-May-16 06:29N 58°30' E 008°53'0 0.0
2017-May-16 05:59N 58°30' E 008°53'0 0.0
2017-May-16 05:29N 58°30' E 008°53'0 0.0
2017-May-16 04:59N 58°30' E 008°53'0 0.0
2017-May-16 04:29N 58°30' E 008°53'0 0.0
2017-May-16 03:59N 58°30' E 008°53'0 0.0
2017-May-16 03:29N 58°30' E 008°53'0 0.0
2017-May-16 02:59N 58°30' E 008°53'0 0.0
2017-May-16 02:29N 58°30' E 008°53'0 0.0
2017-May-16 01:59N 58°30' E 008°53'0 0.0
2017-May-16 01:29N 58°30' E 008°53'0 0.0
2017-May-16 00:59N 58°30' E 008°53'0 0.0
2017-May-16 00:29N 58°30' E 008°53'0 0.0
2017-May-15 23:59N 58°30' E 008°53'0 0.0
2017-May-15 23:29N 58°30' E 008°53'0 0.0
2017-May-15 22:59N 58°30' E 008°53'0 0.0
2017-May-15 22:29N 58°30' E 008°53'0 0.0
2017-May-15 21:59N 58°30' E 008°53'0 0.0
2017-May-15 21:29N 58°30' E 008°53'0 0.0
2017-May-15 20:59N 58°30' E 008°53'0 0.0
2017-May-15 20:29N 58°30' E 008°53'0 0.0
2017-May-15 19:59N 58°30' E 008°53'0 0.0
2017-May-15 19:29N 58°30' E 008°53'0 0.0
2017-May-15 18:59N 58°30' E 008°53'0 0.0
2017-May-15 18:29N 58°30' E 008°53'0 0.0
2017-May-15 17:59N 58°30' E 008°53'0 0.0
2017-May-15 17:29N 58°30' E 008°53'0 0.0
2017-May-15 16:59N 58°30' E 008°53'0 0.0
2017-May-15 16:29N 58°30' E 008°53'0 0.0
2017-May-15 15:59N 58°30' E 008°53'0 0.0
2017-May-15 15:29N 58°30' E 008°53'0 0.0
2017-May-15 14:59N 58°30' E 008°53'0 0.0
2017-May-15 13:59N 58°30' E 008°53'0 0.0
2017-May-15 13:29N 58°30' E 008°53'0 0.0
2017-May-15 12:59N 58°30' E 008°53'0 0.0
2017-May-15 12:29N 58°30' E 008°53'0 0.0
2017-May-15 11:59N 58°30' E 008°53'0 0.0
2017-May-15 11:29N 58°30' E 008°53'0 0.0
2017-May-15 10:59N 58°30' E 008°53'0 0.0
2017-May-15 10:29N 58°30' E 008°53'0 0.0
2017-May-15 09:59N 58°30' E 008°53'0 0.0
2017-May-15 09:29N 58°30' E 008°53'0 0.0
2017-May-15 08:59N 58°30' E 008°53'0 0.0
2017-May-15 08:29N 58°30' E 008°53'0 0.0
2017-May-15 07:59N 58°30' E 008°53'0 0.0
2017-May-15 07:29N 58°30' E 008°53'0 0.0
2017-May-15 06:59N 58°30' E 008°53'0 0.0
2017-May-15 06:29N 58°30' E 008°53'0 0.0
2017-May-15 05:59N 58°30' E 008°53'0 0.0
2017-May-15 05:29N 58°30' E 008°53'0 0.0
2017-May-15 04:59N 58°30' E 008°53'0 0.0
2017-May-15 04:29N 58°30' E 008°53'0 0.0
2017-May-15 03:59N 58°30' E 008°53'0 0.0
2017-May-15 03:29N 58°30' E 008°53'0 0.0
2017-May-15 02:59N 58°30' E 008°53'0 0.0
2017-May-15 02:29N 58°30' E 008°53'0 0.0
2017-May-15 01:59N 58°30' E 008°53'0 0.0
2017-May-15 01:29N 58°30' E 008°53'0 0.0
2017-May-15 00:59N 58°30' E 008°53'0 0.0
2017-May-15 00:29N 58°30' E 008°53'0 0.0
2017-May-14 23:59N 58°30' E 008°53'0 0.0
2017-May-14 23:29N 58°30' E 008°53'0 0.0
2017-May-14 22:59N 58°30' E 008°53'0 0.0
2017-May-14 22:29N 58°30' E 008°53'0 0.0
2017-May-14 21:59N 58°30' E 008°53'0 0.0
2017-May-14 21:29N 58°30' E 008°53'0 0.0
2017-May-14 20:59N 58°30' E 008°53'0 0.0
2017-May-14 20:29N 58°30' E 008°53'0 0.0
2017-May-14 19:59N 58°30' E 008°53'0 0.0
2017-May-14 19:29N 58°30' E 008°53'0 0.0
2017-May-14 18:59N 58°30' E 008°53'0 0.0
2017-May-14 18:29N 58°30' E 008°53'0 0.0
2017-May-14 17:59N 58°30' E 008°53'0 0.0
2017-May-14 17:29N 58°30' E 008°53'0 0.0
2017-May-14 16:59N 58°30' E 008°53'0 0.0
2017-May-14 16:29N 58°30' E 008°53'0 0.0
2017-May-14 15:59N 58°30' E 008°53'0 0.0
2017-May-14 15:29N 58°30' E 008°53'0 0.0
2017-May-14 14:59N 58°30' E 008°53'0 0.0
2017-May-14 14:29N 58°30' E 008°53'0 0.0
2017-May-14 13:29N 58°30' E 008°53'0 0.0
2017-May-14 12:59N 58°30' E 008°53'0 0.0
2017-May-14 12:29N 58°30' E 008°53'0 0.0
2017-May-14 11:59N 58°30' E 008°53'0 0.0
2017-May-14 11:29N 58°30' E 008°53'0 0.0
2017-May-14 10:59N 58°30' E 008°53'0 0.0
2017-May-14 10:29N 58°30' E 008°53'0 0.0
2017-May-14 09:56N 58°30' E 008°53'0 0.0
2017-May-14 09:29N 58°30' E 008°53'0 0.0
2017-May-14 08:59N 58°30' E 008°53'0 0.0
2017-May-14 08:29N 58°30' E 008°53'0 0.0
2017-May-14 07:59N 58°30' E 008°53'0 0.0
2017-May-14 07:29N 58°30' E 008°53'0 0.0
2017-May-14 06:59N 58°30' E 008°53'0 0.0
2017-May-14 06:29N 58°30' E 008°53'0 0.0
2017-May-14 05:59N 58°30' E 008°53'0 0.0
2017-May-14 05:29N 58°30' E 008°53'0 0.0
2017-May-14 04:59N 58°30' E 008°53'0 0.0
2017-May-14 04:29N 58°30' E 008°53'0 0.0
2017-May-14 03:59N 58°30' E 008°53'0 0.0
2017-May-14 03:29N 58°30' E 008°53'0 0.0
2017-May-14 02:59N 58°30' E 008°53'0 0.0
2017-May-14 02:29N 58°30' E 008°53'0 0.0
2017-May-14 01:59N 58°30' E 008°53'0 0.0
2017-May-14 01:29N 58°30' E 008°53'0 0.0
2017-May-14 00:59N 58°30' E 008°53'0 0.0
2017-May-14 00:29N 58°30' E 008°53'0 0.0
2017-May-13 23:59N 58°30' E 008°53'0 0.0
2017-May-13 23:29N 58°30' E 008°53'0 0.0
2017-May-13 22:59N 58°30' E 008°53'0 0.0
2017-May-13 22:29N 58°30' E 008°53'0 0.0
2017-May-13 21:59N 58°30' E 008°53'0 0.0
2017-May-13 21:29N 58°30' E 008°53'0 0.0
2017-May-13 20:59N 58°30' E 008°53'0 0.0
2017-May-13 20:29N 58°30' E 008°53'0 0.0
2017-May-13 19:59N 58°30' E 008°53'0 0.0
2017-May-13 19:29N 58°30' E 008°53'0 0.0
2017-May-13 18:59N 58°30' E 008°53'0 0.0
2017-May-13 18:29N 58°30' E 008°53'0 0.0
2017-May-13 17:59N 58°30' E 008°53'0 0.0
2017-May-13 17:29N 58°30' E 008°53'0 0.0
2017-May-13 16:59N 58°30' E 008°53'0 0.0
2017-May-13 16:29N 58°30' E 008°53'0 0.0
2017-May-13 15:59N 58°30' E 008°53'0 0.0
2017-May-13 15:29N 58°30' E 008°53'0 0.0
2017-May-13 14:59N 58°30' E 008°53'0 0.0
2017-May-13 14:29N 58°30' E 008°53'0 0.0
2017-May-13 13:29N 58°30' E 008°53'0 0.0
2017-May-13 12:59N 58°30' E 008°53'0 0.0
2017-May-13 12:29N 58°30' E 008°53'0 0.0
2017-May-13 11:59N 58°30' E 008°53'0 0.0
2017-May-13 11:29N 58°30' E 008°53'0 0.0
2017-May-13 10:59N 58°30' E 008°53'0 0.0
2017-May-13 10:29N 58°30' E 008°53'0 0.0
2017-May-13 09:59N 58°30' E 008°53'0 0.0
2017-May-13 09:30N 58°30' E 008°53'0 0.0
2017-May-13 09:00N 58°30' E 008°53'0 0.0
2017-May-13 08:30N 58°30' E 008°53'0 0.0
2017-May-13 08:00N 58°30' E 008°53'0 0.0
2017-May-13 07:30N 58°30' E 008°53'0 0.0
2017-May-13 07:00N 58°30' E 008°53'0 0.0
2017-May-13 06:30N 58°30' E 008°53'0 0.0
2017-May-13 06:00N 58°30' E 008°53'0 0.0
2017-May-13 05:30N 58°30' E 008°53'0 0.0
2017-May-13 05:00N 58°30' E 008°53'0 0.0
2017-May-13 04:30N 58°30' E 008°53'0 0.0
2017-May-13 04:00N 58°30' E 008°53'0 0.0
2017-May-13 03:30N 58°30' E 008°53'0 0.0
2017-May-13 03:00N 58°30' E 008°53'0 0.0
2017-May-13 02:30N 58°30' E 008°53'0 0.0
2017-May-13 02:00N 58°30' E 008°53'0 0.0
2017-May-13 01:30N 58°30' E 008°53'0 0.0
2017-May-13 01:00N 58°30' E 008°53'0 0.0
2017-May-13 00:30N 58°30' E 008°53'0 0.0
2017-May-13 00:00N 58°30' E 008°53'0 0.0
2017-May-12 23:30N 58°30' E 008°53'0 0.0
2017-May-12 23:00N 58°30' E 008°53'0 0.0
2017-May-12 22:30N 58°30' E 008°53'0 0.0
2017-May-12 22:00N 58°30' E 008°53'0 0.0
2017-May-12 21:30N 58°30' E 008°53'0 0.0
2017-May-12 21:00N 58°30' E 008°53'0 0.0
2017-May-12 20:30N 58°30' E 008°53'0 0.0
2017-May-12 20:00N 58°30' E 008°53'0 0.0
2017-May-12 19:30N 58°30' E 008°53'0 0.0
2017-May-12 19:00N 58°30' E 008°53'0 0.0
2017-May-12 18:30N 58°30' E 008°53'0 0.0
2017-May-12 18:00N 58°30' E 008°53'0 0.0
2017-May-12 17:30N 58°30' E 008°53'0 0.0
2017-May-12 17:00N 58°30' E 008°53'0 0.0
2017-May-12 16:30N 58°30' E 008°53'0 0.0
2017-May-12 16:00N 58°30' E 008°53'0 0.0
2017-May-12 15:30N 58°30' E 008°53'0 0.0
2017-May-12 15:00N 58°30' E 008°53'  
Track history (hours):
 
Tides and Currents Weather Stations Pressure Air Temp Water Temp Dewpoint Dewpoint Depression Visibility Wind Speed Wind Dir Waves Ship Positions

Traveller

Last reported at 2017-May-22 14:58 UTC. Time now 2017-May-29 03:55 UTC.
Position N 27°37' W 015°13'.

Length 101 m; beam 20 m.

Type: Ship. MMSI: 246111000.

Date/timePositionNaut miles runAvg speedWind from/ knotsBaromVisibWave heightAir tempDewpointWater temp
2017-May-22 14:58N 27°37' W 015°13'1515.9
2017-May-22 14:01N 27°51' W 015°07'815.6
2017-May-22 13:30N 27°59' W 015°04'815.2
2017-May-22 13:00N 28°06' W 015°01'715.0
2017-May-22 12:31N 28°13' W 014°58'815.1
2017-May-22 12:00N 28°20' W 014°55'815.0
2017-May-22 11:30N 28°27' W 014°53'815.0
2017-May-22 11:00N 28°35' W 014°51'815.2
2017-May-22 10:30N 28°42' W 014°49'47515.0
2017-May-21 02:53N 36°24' W 012°41'615.3
2017-May-21 02:30N 36°30' W 012°39'815.3
2017-May-21 02:00N 36°37' W 012°37'815.1
2017-May-21 01:30N 36°45' W 012°35'2315.1
2017-May-20 23:58N 37°08' W 012°29'715.0
2017-May-20 23:31N 37°14' W 012°28'814.9
2017-May-20 23:00N 37°22' W 012°25'715.1
2017-May-20 22:30N 37°29' W 012°23'714.8
2017-May-20 22:00N 37°36' W 012°21'714.6
2017-May-20 21:30N 37°43' W 012°19'714.3
2017-May-20 21:00N 37°50' W 012°17'1714.3
2017-May-20 19:48N 38°07' W 012°12'414.5
2017-May-20 19:31N 38°11' W 012°10'2414.6
2017-May-20 17:53N 38°34' W 012°03'614.9
2017-May-20 17:30N 38°39' W 012°01'715.0
2017-May-20 17:00N 38°47' W 011°59'714.8
2017-May-20 16:30N 38°54' W 011°57'815.0
2017-May-20 16:00N 39°01' W 011°54'715.0
2017-May-20 15:31N 39°08' W 011°52'815.0
2017-May-20 15:00N 39°16' W 011°50'815.0
2017-May-20 14:30N 39°23' W 011°47'71613.9
2017-May-18 10:59N 49°46' W 003°31'613.3
2017-May-18 10:30N 49°49' W 003°22'713.5
2017-May-18 10:00N 49°52' W 003°13'913.7
2017-May-18 09:23N 49°57' W 003°02'514.0
2017-May-18 09:00N 49°59' W 002°55'814.3
2017-May-18 08:26N 50°02' W 002°42'9815.2
2017-May-18 02:00N 50°27' W 000°15'612.9
2017-May-18 01:30N 50°29' W 000°05'612.8
2017-May-18 01:00N 50°31' E 000°04'612.9
2017-May-18 00:30N 50°32' E 000°14'713.0
2017-May-17 23:59N 50°34' E 000°24'713.7
2017-May-17 23:30N 50°36' E 000°34'714.2
2017-May-17 23:00N 50°40' E 000°43'1115.1
2017-May-17 22:15N 50°48' E 000°57'1215.6
2017-May-17 21:27N 50°56' E 001°12'715.6
2017-May-17 20:59N 51°01' E 001°20'715.4
2017-May-17 20:31N 51°05' E 001°30'714.8
2017-May-17 20:00N 51°10' E 001°39'714.2
2017-May-17 19:30N 51°15' E 001°47'713.8
2017-May-17 19:00N 51°21' E 001°52'713.5
2017-May-17 18:30N 51°27' E 001°58'713.6
2017-May-17 18:00N 51°32' E 002°05'713.4
2017-May-17 17:30N 51°37' E 002°12'12115.0
2017-May-17 09:27N 53°09' E 004°21'613.2
2017-May-17 08:59N 53°14' E 004°27'613.4
2017-May-17 08:30N 53°20' E 004°31'713.7
2017-May-17 08:00N 53°27' E 004°35'7414.7
2017-May-17 02:59N 54°35' E 005°22'714.7
2017-May-17 02:29N 54°42' E 005°27'714.6
2017-May-17 02:00N 54°48' E 005°32'21914.0
2017-May-16 10:20N 58°00' E 008°42'615.1
2017-May-16 09:55N 58°05' E 008°51'615.3
2017-May-16 09:30N 58°11' E 008°51'715.3
2017-May-16 09:00N 58°19' E 008°53'816.1
2017-May-16 08:30N 58°27' E 008°55'611.9
2017-May-16 08:00N 58°32' E 009°01'5 9.1
2017-May-16 07:30N 58°30' E 008°53'0 0.2
2017-May-16 06:59N 58°30' E 008°53'0 0.0
2017-May-16 06:29N 58°30' E 008°53'0 0.0
2017-May-16 05:59N 58°30' E 008°53'0 0.0
2017-May-16 05:29N 58°30' E 008°53'0 0.0
2017-May-16 04:59N 58°30' E 008°53'0 0.0
2017-May-16 04:29N 58°30' E 008°53'0 0.0
2017-May-16 03:59N 58°30' E 008°53'0 0.0
2017-May-16 03:29N 58°30' E 008°53'0 0.0
2017-May-16 02:59N 58°30' E 008°53'0 0.0
2017-May-16 02:29N 58°30' E 008°53'0 0.0
2017-May-16 01:59N 58°30' E 008°53'0 0.0
2017-May-16 01:29N 58°30' E 008°53'0 0.0
2017-May-16 00:59N 58°30' E 008°53'0 0.0
2017-May-16 00:29N 58°30' E 008°53'0 0.0
2017-May-15 23:59N 58°30' E 008°53'0 0.0
2017-May-15 23:29N 58°30' E 008°53'0 0.0
2017-May-15 22:59N 58°30' E 008°53'0 0.0
2017-May-15 22:29N 58°30' E 008°53'0 0.0
2017-May-15 21:59N 58°30' E 008°53'0 0.0
2017-May-15 21:29N 58°30' E 008°53'0 0.0
2017-May-15 20:59N 58°30' E 008°53'0 0.0
2017-May-15 20:29N 58°30' E 008°53'0 0.0
2017-May-15 19:59N 58°30' E 008°53'0 0.0
2017-May-15 19:29N 58°30' E 008°53'0 0.0
2017-May-15 18:59N 58°30' E 008°53'0 0.0
2017-May-15 18:29N 58°30' E 008°53'0 0.0
2017-May-15 17:59N 58°30' E 008°53'0 0.0
2017-May-15 17:29N 58°30' E 008°53'0 0.0
2017-May-15 16:59N 58°30' E 008°53'0 0.0
2017-May-15 16:29N 58°30' E 008°53'0 0.0
2017-May-15 15:59N 58°30' E 008°53'0 0.0
2017-May-15 15:29N 58°30' E 008°53'0 0.0
2017-May-15 14:59N 58°30' E 008°53'0 0.0
2017-May-15 13:59N 58°30' E 008°53'0 0.0
2017-May-15 13:29N 58°30' E 008°53'0 0.0
2017-May-15 12:59N 58°30' E 008°53'0 0.0
2017-May-15 12:29N 58°30' E 008°53'0 0.0
2017-May-15 11:59N 58°30' E 008°53'0 0.0
2017-May-15 11:29N 58°30' E 008°53'0 0.0
2017-May-15 10:59N 58°30' E 008°53'0 0.0
2017-May-15 10:29N 58°30' E 008°53'0 0.0
2017-May-15 09:59N 58°30' E 008°53'0 0.0
2017-May-15 09:29N 58°30' E 008°53'0 0.0
2017-May-15 08:59N 58°30' E 008°53'0 0.0
2017-May-15 08:29N 58°30' E 008°53'0 0.0
2017-May-15 07:59N 58°30' E 008°53'0 0.0
2017-May-15 07:29N 58°30' E 008°53'0 0.0
2017-May-15 06:59N 58°30' E 008°53'0 0.0
2017-May-15 06:29N 58°30' E 008°53'0 0.0
2017-May-15 05:59N 58°30' E 008°53'0 0.0
2017-May-15 05:29N 58°30' E 008°53'0 0.0
2017-May-15 04:59N 58°30' E 008°53'0 0.0
2017-May-15 04:29N 58°30' E 008°53'0 0.0
2017-May-15 03:59N 58°30' E 008°53'0 0.0
2017-May-15 03:29N 58°30' E 008°53'0 0.0
2017-May-15 02:59N 58°30' E 008°53'0 0.0
2017-May-15 02:29N 58°30' E 008°53'0 0.0
2017-May-15 01:59N 58°30' E 008°53'0 0.0
2017-May-15 01:29N 58°30' E 008°53'0 0.0
2017-May-15 00:59N 58°30' E 008°53'0 0.0
2017-May-15 00:29N 58°30' E 008°53'0 0.0
2017-May-14 23:59N 58°30' E 008°53'0 0.0
2017-May-14 23:29N 58°30' E 008°53'0 0.0
2017-May-14 22:59N 58°30' E 008°53'0 0.0
2017-May-14 22:29N 58°30' E 008°53'0 0.0
2017-May-14 21:59N 58°30' E 008°53'0 0.0
2017-May-14 21:29N 58°30' E 008°53'0 0.0
2017-May-14 20:59N 58°30' E 008°53'0 0.0
2017-May-14 20:29N 58°30' E 008°53'0 0.0
2017-May-14 19:59N 58°30' E 008°53'0 0.0
2017-May-14 19:29N 58°30' E 008°53'0 0.0
2017-May-14 18:59N 58°30' E 008°53'0 0.0
2017-May-14 18:29N 58°30' E 008°53'0 0.0
2017-May-14 17:59N 58°30' E 008°53'0 0.0
2017-May-14 17:29N 58°30' E 008°53'0 0.0
2017-May-14 16:59N 58°30' E 008°53'0 0.0
2017-May-14 16:29N 58°30' E 008°53'0 0.0
2017-May-14 15:59N 58°30' E 008°53'0 0.0
2017-May-14 15:29N 58°30' E 008°53'0 0.0
2017-May-14 14:59N 58°30' E 008°53'0 0.0
2017-May-14 14:29N 58°30' E 008°53'0 0.0
2017-May-14 13:29N 58°30' E 008°53'0 0.0
2017-May-14 12:59N 58°30' E 008°53'0 0.0
2017-May-14 12:29N 58°30' E 008°53'0 0.0
2017-May-14 11:59N 58°30' E 008°53'0 0.0
2017-May-14 11:29N 58°30' E 008°53'0 0.0
2017-May-14 10:59N 58°30' E 008°53'0 0.0
2017-May-14 10:29N 58°30' E 008°53'0 0.0
2017-May-14 09:56N 58°30' E 008°53'0 0.0
2017-May-14 09:29N 58°30' E 008°53'0 0.0
2017-May-14 08:59N 58°30' E 008°53'0 0.0
2017-May-14 08:29N 58°30' E 008°53'0 0.0
2017-May-14 07:59N 58°30' E 008°53'0 0.0
2017-May-14 07:29N 58°30' E 008°53'0 0.0
2017-May-14 06:59N 58°30' E 008°53'0 0.0
2017-May-14 06:29N 58°30' E 008°53'0 0.0
2017-May-14 05:59N 58°30' E 008°53'0 0.0
2017-May-14 05:29N 58°30' E 008°53'0 0.0
2017-May-14 04:59N 58°30' E 008°53'0 0.0
2017-May-14 04:29N 58°30' E 008°53'0 0.0
2017-May-14 03:59N 58°30' E 008°53'0 0.0
2017-May-14 03:29N 58°30' E 008°53'0 0.0
2017-May-14 02:59N 58°30' E 008°53'0 0.0
2017-May-14 02:29N 58°30' E 008°53'0 0.0
2017-May-14 01:59N 58°30' E 008°53'0 0.0
2017-May-14 01:29N 58°30' E 008°53'0 0.0
2017-May-14 00:59N 58°30' E 008°53'0 0.0
2017-May-14 00:29N 58°30' E 008°53'0 0.0
2017-May-13 23:59N 58°30' E 008°53'0 0.0
2017-May-13 23:29N 58°30' E 008°53'0 0.0
2017-May-13 22:59N 58°30' E 008°53'0 0.0
2017-May-13 22:29N 58°30' E 008°53'0 0.0
2017-May-13 21:59N 58°30' E 008°53'0 0.0
2017-May-13 21:29N 58°30' E 008°53'0 0.0
2017-May-13 20:59N 58°30' E 008°53'0 0.0
2017-May-13 20:29N 58°30' E 008°53'0 0.0
2017-May-13 19:59N 58°30' E 008°53'0 0.0
2017-May-13 19:29N 58°30' E 008°53'0 0.0
2017-May-13 18:59N 58°30' E 008°53'0 0.0
2017-May-13 18:29N 58°30' E 008°53'0 0.0
2017-May-13 17:59N 58°30' E 008°53'0 0.0
2017-May-13 17:29N 58°30' E 008°53'0 0.0
2017-May-13 16:59N 58°30' E 008°53'0 0.0
2017-May-13 16:29N 58°30' E 008°53'0 0.0
2017-May-13 15:59N 58°30' E 008°53'0 0.0
2017-May-13 15:29N 58°30' E 008°53'0 0.0
2017-May-13 14:59N 58°30' E 008°53'0 0.0
2017-May-13 14:29N 58°30' E 008°53'0 0.0
2017-May-13 13:29N 58°30' E 008°53'0 0.0
2017-May-13 12:59N 58°30' E 008°53'0 0.0
2017-May-13 12:29N 58°30' E 008°53'0 0.0
2017-May-13 11:59N 58°30' E 008°53'0 0.0
2017-May-13 11:29N 58°30' E 008°53'0 0.0
2017-May-13 10:59N 58°30' E 008°53'0 0.0
2017-May-13 10:29N 58°30' E 008°53'0 0.0
2017-May-13 09:59N 58°30' E 008°53'0 0.0
2017-May-13 09:30N 58°30' E 008°53'0 0.0
2017-May-13 09:00N 58°30' E 008°53'0 0.0
2017-May-13 08:30N 58°30' E 008°53'0 0.0
2017-May-13 08:00N 58°30' E 008°53'0 0.0
2017-May-13 07:30N 58°30' E 008°53'0 0.0
2017-May-13 07:00N 58°30' E 008°53'0 0.0
2017-May-13 06:30N 58°30' E 008°53'0 0.0
2017-May-13 06:00N 58°30' E 008°53'0 0.0
2017-May-13 05:30N 58°30' E 008°53'0 0.0
2017-May-13 05:00N 58°30' E 008°53'0 0.0
2017-May-13 04:30N 58°30' E 008°53'0 0.0
2017-May-13 04:00N 58°30' E 008°53'0 0.0
2017-May-13 03:30N 58°30' E 008°53'0 0.0
2017-May-13 03:00N 58°30' E 008°53'0 0.0
2017-May-13 02:30N 58°30' E 008°53'0 0.0
2017-May-13 02:00N 58°30' E 008°53'0 0.0
2017-May-13 01:30N 58°30' E 008°53'0 0.0
2017-May-13 01:00N 58°30' E 008°53'0 0.0
2017-May-13 00:30N 58°30' E 008°53'0 0.0
2017-May-13 00:00N 58°30' E 008°53'0 0.0
2017-May-12 23:30N 58°30' E 008°53'0 0.0
2017-May-12 23:00N 58°30' E 008°53'0 0.0
2017-May-12 22:30N 58°30' E 008°53'0 0.0
2017-May-12 22:00N 58°30' E 008°53'0 0.0
2017-May-12 21:30N 58°30' E 008°53'0 0.0
2017-May-12 21:00N 58°30' E 008°53'0 0.0
2017-May-12 20:30N 58°30' E 008°53'0 0.0
2017-May-12 20:00N 58°30' E 008°53'0 0.0
2017-May-12 19:30N 58°30' E 008°53'0 0.0
2017-May-12 19:00N 58°30' E 008°53'0 0.0
2017-May-12 18:30N 58°30' E 008°53'0 0.0
2017-May-12 18:00N 58°30' E 008°53'0 0.0
2017-May-12 17:30N 58°30' E 008°53'0 0.0
2017-May-12 17:00N 58°30' E 008°53'0 0.0
2017-May-12 16:30N 58°30' E 008°53'0 0.0
2017-May-12 16:00N 58°30' E 008°53'0 0.0
2017-May-12 15:30N 58°30' E 008°53'0 0.0
2017-May-12 15:00N 58°30' E 008°53'  

Dump ship's entire track history